createdAt,value
2022-07-29T00:01:18.997Z,95101.75
2022-07-29T00:03:37.356Z,95104.69
2022-07-29T00:06:04.593Z,95102.58
2022-07-29T00:08:31.738Z,95100.34
2022-07-29T00:10:58.230Z,95096.11
2022-07-29T00:13:31.821Z,95108.22
2022-07-29T00:15:51.301Z,95114.21
2022-07-29T00:18:17.937Z,95109.86
2022-07-29T00:20:44.361Z,95116.33
2022-07-29T00:23:13.621Z,95115.03
2022-07-29T00:25:37.206Z,95122.80
2022-07-29T00:28:03.623Z,95131.84
2022-07-29T00:30:30.057Z,95127.97
2022-07-29T00:32:56.530Z,95126.56
2022-07-29T00:35:22.971Z,95119.73
2022-07-29T00:37:49.380Z,95121.15
2022-07-29T00:40:15.834Z,95115.03
2022-07-29T00:42:42.241Z,95111.16
2022-07-29T00:45:08.696Z,95104.22
2022-07-29T00:47:35.132Z,95111.98
2022-07-29T00:50:01.539Z,95116.69
2022-07-29T00:52:27.997Z,95118.80
2022-07-29T00:54:54.402Z,95115.39
2022-07-29T00:57:20.870Z,95114.21
2022-07-29T00:59:47.398Z,95116.69
2022-07-29T01:02:13.854Z,95126.20
2022-07-29T01:04:40.214Z,95124.91
2022-07-29T01:07:06.696Z,95121.50
2022-07-29T01:09:43.036Z,95117.27
2022-07-29T01:11:59.531Z,95106.45
2022-07-29T01:14:25.968Z,95107.63
2022-07-29T01:16:52.348Z,95096.11
2022-07-29T01:19:18.733Z,95099.66
2022-07-29T01:21:45.113Z,95099.98
2022-07-29T01:24:11.527Z,95095.28
2022-07-29T01:26:37.921Z,95102.92
2022-07-29T01:29:07.519Z,95102.45
2022-07-29T01:31:30.865Z,95099.52
2022-07-29T01:33:57.289Z,95105.16
2022-07-29T01:36:23.795Z,95105.52
2022-07-29T01:38:50.181Z,95105.98
2022-07-29T01:41:16.558Z,95109.86
2022-07-29T01:43:42.942Z,95101.63
2022-07-29T01:46:09.337Z,95100.81
2022-07-29T01:48:35.876Z,95101.28
2022-07-29T01:51:02.108Z,95099.16
2022-07-29T01:53:28.494Z,95092.70
2022-07-29T01:55:54.872Z,95090.81
2022-07-29T01:58:22.899Z,95085.44
2022-07-29T02:00:47.813Z,95090.47
2022-07-29T02:03:14.175Z,95087.05
2022-07-29T02:05:40.686Z,95087.52
2022-07-29T02:08:08.077Z,95087.05
2022-07-29T02:10:33.472Z,95078.00
2022-07-29T02:12:59.859Z,95081.30
2022-07-29T02:15:26.235Z,95082.91
2022-07-29T02:17:52.628Z,95078.35
2022-07-29T02:20:19.081Z,95072.83
2022-07-29T02:22:45.464Z,95074.12
2022-07-29T02:25:13.919Z,95073.45
2022-07-29T02:27:38.233Z,95068.39
2022-07-29T02:30:04.712Z,95075.68
2022-07-29T02:32:32.051Z,95069.84
2022-07-29T02:34:57.511Z,95078.53
2022-07-29T02:37:23.898Z,95078.42
2022-07-29T02:39:50.299Z,95075.01
2022-07-29T02:42:16.776Z,95077.86
2022-07-29T02:44:43.156Z,95069.95
2022-07-29T02:47:09.541Z,95065.88
2022-07-29T02:49:35.919Z,95068.81
2022-07-29T02:52:02.417Z,95059.41
2022-07-29T02:54:28.823Z,95059.41
2022-07-29T02:56:55.224Z,95060.34
2022-07-29T02:59:21.607Z,95058.26
2022-07-29T03:01:49.679Z,95056.14
2022-07-29T03:04:14.772Z,95063.91
2022-07-29T03:06:40.753Z,95066.81
2022-07-29T03:09:12.572Z,95072.80
2022-07-29T03:11:44.290Z,95064.38
2022-07-29T03:13:59.938Z,95063.55
2022-07-29T03:16:26.441Z,95061.11
2022-07-29T03:18:52.765Z,95061.44
2022-07-29T03:21:19.198Z,95060.14
2022-07-29T03:23:45.632Z,95062.52
2022-07-29T03:26:12.022Z,95063.81
2022-07-29T03:28:38.427Z,95064.48
2022-07-29T03:31:04.848Z,95067.70
2022-07-29T03:33:31.208Z,95067.58
2022-07-29T03:35:57.595Z,95070.16
2022-07-29T03:38:23.979Z,95064.84
2022-07-29T03:40:50.357Z,95061.31
2022-07-29T03:43:16.792Z,95066.96
2022-07-29T03:45:43.213Z,95065.52
2022-07-29T03:48:09.596Z,95061.99
2022-07-29T03:50:36.093Z,95074.45
2022-07-29T03:53:02.500Z,95074.09
2022-07-29T03:55:28.884Z,95074.25
2022-07-29T03:57:55.276Z,95082.68
2022-07-29T04:00:21.665Z,95084.17
2022-07-29T04:02:48.038Z,95081.18
2022-07-29T04:05:14.418Z,95079.06
2022-07-29T04:07:40.819Z,95083.77
2022-07-29T04:10:07.211Z,95081.53
2022-07-29T04:12:35.546Z,95080.36
2022-07-29T04:15:00.143Z,95078.95
2022-07-29T04:17:26.504Z,95077.92
2022-07-29T04:19:52.889Z,95077.86
2022-07-29T04:22:20.909Z,95080.92
2022-07-29T04:24:47.387Z,95079.63
2022-07-29T04:27:13.771Z,95076.09
2022-07-29T04:29:56.603Z,95081.39
2022-07-29T04:32:06.563Z,95076.09
2022-07-29T04:34:32.946Z,95074.45
2022-07-29T04:36:59.332Z,95078.18
2022-07-29T04:39:25.713Z,95077.51
2022-07-29T04:41:52.607Z,95080.36
2022-07-29T04:44:19.041Z,95079.21
2022-07-29T04:46:44.960Z,95078.71
2022-07-29T04:49:11.354Z,95086.17
2022-07-29T04:51:37.679Z,95087.30
2022-07-29T04:54:04.071Z,95089.06
2022-07-29T04:56:30.517Z,95090.84
2022-07-29T04:58:56.908Z,95097.45
2022-07-29T05:01:23.331Z,95094.16
2022-07-29T05:03:51.081Z,95098.30
2022-07-29T05:06:16.067Z,95103.62
2022-07-29T05:08:42.490Z,95103.62
2022-07-29T05:11:12.474Z,95102.19
2022-07-29T05:13:45.971Z,95100.56
2022-07-29T05:16:01.708Z,95099.27
2022-07-29T05:18:28.048Z,95103.01
2022-07-29T05:20:54.441Z,95108.53
2022-07-29T05:23:20.858Z,95109.09
2022-07-29T05:25:47.235Z,95108.95
2022-07-29T05:28:13.735Z,95114.83
2022-07-29T05:30:40.164Z,95110.36
2022-07-29T05:33:06.513Z,95106.22
2022-07-29T05:35:32.897Z,95110.45
2022-07-29T05:37:59.295Z,95111.12
2022-07-29T05:40:25.677Z,95108.69
2022-07-29T05:42:52.048Z,95109.45
2022-07-29T05:45:18.437Z,95108.36
2022-07-29T05:47:44.892Z,95114.48
2022-07-29T05:50:11.330Z,95106.25
2022-07-29T05:52:37.710Z,95111.30
2022-07-29T05:55:04.119Z,95107.55
2022-07-29T05:57:30.524Z,95108.36
2022-07-29T05:59:59.339Z,95118.03
2022-07-29T06:02:25.782Z,95114.65
2022-07-29T06:04:52.194Z,95104.95
2022-07-29T06:07:18.589Z,95112.59
2022-07-29T06:09:44.955Z,95120.91
2022-07-29T06:12:11.353Z,95116.94
2022-07-29T06:14:37.740Z,95123.42
2022-07-29T06:17:04.143Z,95117.32
2022-07-29T06:19:30.542Z,95126.62
2022-07-29T06:21:56.931Z,95119.81
2022-07-29T06:24:23.352Z,95124.09
2022-07-29T06:26:49.692Z,95116.25
2022-07-29T06:29:16.218Z,95117.39
2022-07-29T06:31:43.991Z,95121.42
2022-07-29T06:34:08.994Z,95123.74
2022-07-29T06:36:35.508Z,95122.80
2022-07-29T06:39:02.826Z,95121.27
2022-07-29T06:41:28.278Z,95121.72
2022-07-29T06:43:56.799Z,95116.34
2022-07-29T06:46:21.360Z,95115.73
2022-07-29T06:48:47.608Z,95108.63
2022-07-29T06:51:13.969Z,95115.56
2022-07-29T06:53:59.737Z,95113.80
2022-07-29T06:56:06.743Z,95104.36
2022-07-29T06:58:33.122Z,95105.39
2022-07-29T07:00:59.615Z,95108.59
2022-07-29T07:03:25.892Z,95104.81
2022-07-29T07:05:52.404Z,95096.78
2022-07-29T07:08:18.844Z,95107.16
2022-07-29T07:10:45.250Z,95094.47
2022-07-29T07:13:11.641Z,95101.66
2022-07-29T07:15:39.406Z,95100.05
2022-07-29T07:18:04.565Z,95101.33
2022-07-29T07:20:30.963Z,95105.30
2022-07-29T07:22:57.540Z,95101.89
2022-07-29T07:25:23.921Z,95109.56
2022-07-29T07:27:50.338Z,95098.87
2022-07-29T07:30:16.741Z,95105.47
2022-07-29T07:32:43.185Z,95103.92
2022-07-29T07:35:09.531Z,95095.69
2022-07-29T07:37:35.939Z,95093.95
2022-07-29T07:40:02.373Z,95095.39
2022-07-29T07:42:28.773Z,95093.66
2022-07-29T07:45:12.649Z,95085.82
2022-07-29T07:47:21.670Z,95081.47
2022-07-29T07:49:48.071Z,95088.26
2022-07-29T07:52:14.536Z,95088.03
2022-07-29T07:54:40.938Z,95088.03
2022-07-29T07:57:07.361Z,95084.97
2022-07-29T07:59:33.755Z,95083.91
2022-07-29T08:02:00.297Z,95087.32
2022-07-29T08:04:28.627Z,95090.28
2022-07-29T08:06:52.904Z,95088.41
2022-07-29T08:09:29.243Z,95085.58
2022-07-29T08:11:51.596Z,95089.14
2022-07-29T08:14:12.061Z,95086.88
2022-07-29T08:16:38.559Z,95085.00
2022-07-29T08:19:04.916Z,95079.94
2022-07-29T08:21:31.326Z,95078.53
2022-07-29T08:24:01.791Z,95080.18
2022-07-29T08:26:24.165Z,95076.13
2022-07-29T08:28:50.576Z,95075.69
2022-07-29T08:31:17.019Z,95068.19
2022-07-29T08:33:43.743Z,95066.55
2022-07-29T08:36:10.142Z,95064.66
2022-07-29T08:38:36.524Z,95069.48
2022-07-29T08:41:02.950Z,95067.37
2022-07-29T08:43:29.350Z,95071.87
2022-07-29T08:45:55.762Z,95066.20
2022-07-29T08:48:22.291Z,95062.94
2022-07-29T08:50:48.545Z,95063.61
2022-07-29T08:53:14.930Z,95062.31
2022-07-29T08:55:42.712Z,95057.76
2022-07-29T08:58:07.696Z,95068.78
2022-07-29T09:00:34.161Z,95061.47
2022-07-29T09:03:00.602Z,95063.38
2022-07-29T09:05:27.026Z,95064.75
2022-07-29T09:07:53.426Z,95056.77
2022-07-29T09:10:19.811Z,95055.12
2022-07-29T09:12:46.195Z,95055.11
2022-07-29T09:15:12.614Z,95059.58
2022-07-29T09:17:39.024Z,95053.67
2022-07-29T09:20:05.415Z,95050.66
2022-07-29T09:22:31.821Z,95050.53
2022-07-29T09:24:58.217Z,95053.97
2022-07-29T09:27:24.602Z,95056.20
2022-07-29T09:29:50.988Z,95053.23
2022-07-29T09:32:17.381Z,95051.83
2022-07-29T09:34:43.760Z,95054.77
2022-07-29T09:37:10.147Z,95055.73
2022-07-29T09:39:36.531Z,95052.00
2022-07-29T09:42:03.019Z,95046.20
2022-07-29T09:44:29.416Z,95052.00
2022-07-29T09:46:56.139Z,95044.09
2022-07-29T09:49:22.290Z,95045.06
2022-07-29T09:51:48.573Z,95039.07
2022-07-29T09:54:14.971Z,95034.77
2022-07-29T09:56:41.361Z,95028.45
2022-07-29T09:59:07.742Z,95029.05
2022-07-29T10:01:34.235Z,95028.79
2022-07-29T10:04:00.608Z,95026.88
2022-07-29T10:06:27.004Z,95027.70
2022-07-29T10:08:53.392Z,95024.58
2022-07-29T10:11:19.801Z,95022.53
2022-07-29T10:13:46.206Z,95016.60
2022-07-29T10:16:14.062Z,95014.48
2022-07-29T10:18:39.024Z,95009.67
2022-07-29T10:21:05.599Z,95010.28
2022-07-29T10:23:46.287Z,95004.67
2022-07-29T10:26:00.039Z,95003.73
2022-07-29T10:28:24.773Z,95005.77
2022-07-29T10:30:51.189Z,95001.33
2022-07-29T10:33:17.557Z,95002.23
2022-07-29T10:35:43.955Z,94990.41
2022-07-29T10:38:13.638Z,94993.92
2022-07-29T10:40:36.803Z,94993.45
2022-07-29T10:43:03.193Z,94991.98
2022-07-29T10:45:29.587Z,94987.84
2022-07-29T10:47:55.966Z,94983.41
2022-07-29T10:50:22.349Z,94983.32
2022-07-29T10:52:48.731Z,94978.63
2022-07-29T10:55:15.123Z,94978.63
2022-07-29T10:57:53.072Z,94976.19
2022-07-29T11:00:07.892Z,94973.33
2022-07-29T11:02:41.728Z,94970.28
2022-07-29T11:05:00.692Z,94969.11
2022-07-29T11:07:27.125Z,94961.28
2022-07-29T11:09:53.522Z,94963.20
2022-07-29T11:12:19.897Z,94966.66
2022-07-29T11:14:46.295Z,94964.62
2022-07-29T11:17:14.043Z,94961.61
2022-07-29T11:22:05.707Z,94954.87
2022-07-29T11:24:32.025Z,94950.20
2022-07-29T11:29:24.648Z,94948.41
2022-07-29T11:31:51.041Z,94946.33
2022-07-29T11:34:18.824Z,94941.00
2022-07-29T11:36:43.818Z,94942.69
2022-07-29T11:39:10.209Z,94941.16
2022-07-29T11:41:36.593Z,94936.02
2022-07-29T11:44:03.044Z,94940.33
2022-07-29T11:46:29.437Z,94940.33
2022-07-29T11:48:55.915Z,94940.87
2022-07-29T11:51:32.847Z,94936.58
2022-07-29T11:53:48.635Z,94933.23
2022-07-29T11:56:16.981Z,94934.61
2022-07-29T11:58:41.417Z,94931.28
2022-07-29T12:01:09.452Z,94933.59
2022-07-29T12:03:35.824Z,94932.30
2022-07-29T12:06:00.715Z,94934.45
2022-07-29T12:07:01.385Z,94949.66
2022-07-29T12:08:27.120Z,94929.16
2022-07-29T12:10:53.520Z,94928.07
2022-07-29T12:13:19.908Z,94930.58
2022-07-29T12:15:47.337Z,94931.55
2022-07-29T12:18:12.721Z,94939.59
2022-07-29T12:20:39.133Z,94929.01
2022-07-29T12:23:05.596Z,94929.44
2022-07-29T12:25:33.724Z,94927.98
2022-07-29T12:27:58.394Z,94925.75
2022-07-29T12:30:24.791Z,94924.27
2022-07-29T12:32:51.244Z,94926.30
2022-07-29T12:35:17.752Z,94923.80
2022-07-29T12:37:44.149Z,94924.66
2022-07-29T12:40:10.532Z,94917.05
2022-07-29T12:42:36.931Z,94917.25
2022-07-29T12:45:03.317Z,94916.43
2022-07-29T12:47:29.720Z,94914.52
2022-07-29T12:49:56.109Z,94916.03
2022-07-29T12:52:22.506Z,94910.31
2022-07-29T12:54:48.893Z,94909.97
2022-07-29T12:57:20.170Z,94909.61
2022-07-29T12:59:41.747Z,94912.83
2022-07-29T13:02:08.171Z,94906.56
2022-07-29T13:04:34.524Z,94898.41
2022-07-29T13:07:00.981Z,94900.09
2022-07-29T13:09:27.300Z,94898.48
2022-07-29T13:11:53.726Z,94897.43
2022-07-29T13:14:20.154Z,94893.90
2022-07-29T13:16:46.638Z,94892.06
2022-07-29T13:19:12.984Z,94900.64
2022-07-29T13:21:41.202Z,94888.26
2022-07-29T13:24:05.763Z,94884.38
2022-07-29T13:26:32.181Z,94887.09
2022-07-29T13:28:58.571Z,94879.05
2022-07-29T13:31:24.959Z,94879.33
2022-07-29T13:33:51.341Z,94875.68
2022-07-29T13:36:17.735Z,94875.05
2022-07-29T13:38:44.150Z,94875.45
2022-07-29T13:41:10.531Z,94875.25
2022-07-29T13:43:36.921Z,94873.77
2022-07-29T13:46:03.372Z,94867.66
2022-07-29T13:48:29.691Z,94869.61
2022-07-29T13:50:56.077Z,94868.25
2022-07-29T13:53:26.772Z,94868.12
2022-07-29T13:55:48.929Z,94874.36
2022-07-29T13:58:15.314Z,94862.13
2022-07-29T14:00:41.696Z,94866.01
2022-07-29T14:03:08.096Z,94870.83
2022-07-29T14:05:34.540Z,94867.66
2022-07-29T14:08:00.949Z,94872.59
2022-07-29T14:10:27.378Z,94872.72
2022-07-29T14:12:53.757Z,94876.47
2022-07-29T14:15:22.729Z,94870.83
2022-07-29T14:17:49.136Z,94876.42
2022-07-29T14:20:15.518Z,94870.28
2022-07-29T14:22:42.547Z,94872.00
2022-07-29T14:25:14.232Z,94870.16
2022-07-29T14:27:35.084Z,94872.12
2022-07-29T14:30:01.283Z,94871.92
2022-07-29T14:32:27.681Z,94869.88
2022-07-29T14:34:54.067Z,94867.77
2022-07-29T14:37:20.453Z,94861.03
2022-07-29T14:39:46.867Z,94856.87
2022-07-29T14:42:13.254Z,94852.18
2022-07-29T14:44:41.597Z,94855.73
2022-07-29T14:47:08.083Z,94857.63
2022-07-29T14:49:32.491Z,94860.80
2022-07-29T14:51:59.146Z,94858.80
2022-07-29T14:54:25.254Z,94860.14
2022-07-29T14:56:51.664Z,94866.17
2022-07-29T14:59:18.051Z,94872.72
2022-07-29T15:01:44.429Z,94877.99
2022-07-29T15:04:10.816Z,94867.97
2022-07-29T15:06:37.188Z,94873.81
2022-07-29T15:09:03.580Z,94866.38
2022-07-29T15:11:29.960Z,94865.16
2022-07-29T15:13:56.346Z,94869.78
2022-07-29T15:16:22.745Z,94858.06
2022-07-29T15:18:49.116Z,94860.61
2022-07-29T15:21:15.504Z,94853.05
2022-07-29T15:23:41.889Z,94854.62
2022-07-29T15:26:08.294Z,94850.94
2022-07-29T15:28:34.680Z,94847.41
2022-07-29T15:31:01.092Z,94849.92
2022-07-29T15:33:27.482Z,94843.61
2022-07-29T15:38:29.198Z,94853.45
2022-07-29T15:40:55.512Z,94856.30
2022-07-29T15:43:21.900Z,94849.64
2022-07-29T15:45:48.361Z,94849.52
2022-07-29T15:48:15.059Z,94852.50
2022-07-29T15:50:41.207Z,94854.47
2022-07-29T15:53:07.583Z,94845.97
2022-07-29T15:55:34.076Z,94854.89
2022-07-29T15:58:00.849Z,94856.03
2022-07-29T16:00:26.876Z,94854.81
2022-07-29T16:02:53.282Z,94854.47
2022-07-29T16:05:19.647Z,94855.28
2022-07-29T16:07:46.967Z,94859.31
2022-07-29T16:10:12.403Z,94858.69
2022-07-29T16:12:41.767Z,94855.16
2022-07-29T16:15:10.157Z,94849.30
2022-07-29T16:17:34.532Z,94850.94
2022-07-29T16:20:00.939Z,94854.34
2022-07-29T16:22:27.297Z,94851.48
2022-07-29T16:24:53.674Z,94849.25
2022-07-29T16:27:20.061Z,94858.69
2022-07-29T16:29:46.439Z,94860.34
2022-07-29T16:32:12.824Z,94860.80
2022-07-29T16:34:39.233Z,94867.62
2022-07-29T16:37:05.918Z,94868.20
2022-07-29T16:39:32.029Z,94876.44
2022-07-29T16:42:01.477Z,94878.90
2022-07-29T16:44:25.122Z,94877.45
2022-07-29T16:46:51.222Z,94879.09
2022-07-29T16:49:19.359Z,94880.86
2022-07-29T16:51:43.987Z,94878.51
2022-07-29T16:54:10.363Z,94876.39
2022-07-29T16:56:38.806Z,94869.66
2022-07-29T16:59:03.991Z,94875.14
2022-07-29T17:01:30.447Z,94875.14
2022-07-29T17:03:59.951Z,94872.28
2022-07-29T17:06:23.124Z,94871.89
2022-07-29T17:08:49.535Z,94875.30
2022-07-29T17:11:15.913Z,94873.58
2022-07-29T17:13:42.327Z,94869.70
2022-07-29T17:16:08.732Z,94875.18
2022-07-29T17:18:35.129Z,94872.94
2022-07-29T17:21:01.517Z,94878.11
2022-07-29T17:23:27.935Z,94876.08
2022-07-29T17:25:54.276Z,94869.48
2022-07-29T17:28:20.674Z,94876.15
2022-07-29T17:30:47.043Z,94870.51
2022-07-29T17:33:13.431Z,94867.30
2022-07-29T17:35:39.838Z,94880.63
2022-07-29T17:38:06.193Z,94877.84
2022-07-29T17:40:32.570Z,94882.39
2022-07-29T17:42:58.960Z,94877.88
2022-07-29T17:45:25.335Z,94885.44
2022-07-29T17:47:51.853Z,94885.91
2022-07-29T17:50:18.233Z,94894.26
2022-07-29T17:52:44.616Z,94892.64
2022-07-29T17:55:10.996Z,94892.64
2022-07-29T17:57:37.383Z,94887.28
2022-07-29T18:00:03.766Z,94900.72
2022-07-29T18:02:30.320Z,94894.41
2022-07-29T18:04:56.633Z,94900.72
2022-07-29T18:07:23.049Z,94900.95
2022-07-29T18:09:49.425Z,94916.23
2022-07-29T18:12:15.907Z,94913.88
2022-07-29T18:14:42.416Z,94911.97
2022-07-29T18:17:08.775Z,94909.14
2022-07-29T18:19:35.153Z,94910.86
2022-07-29T18:22:05.428Z,94914.59
2022-07-29T18:24:27.940Z,94918.34
2022-07-29T18:26:54.339Z,94921.41
2022-07-29T18:29:20.717Z,94925.48
2022-07-29T18:31:49.739Z,94922.78
2022-07-29T18:34:16.082Z,94920.86
2022-07-29T18:36:42.497Z,94927.99
2022-07-29T18:39:08.869Z,94930.11
2022-07-29T18:41:35.330Z,94930.45
2022-07-29T18:44:01.705Z,94931.13
2022-07-29T18:46:28.117Z,94922.42
2022-07-29T18:48:54.542Z,94930.03
2022-07-29T18:51:20.868Z,94930.73
2022-07-29T18:53:47.245Z,94931.05
2022-07-29T18:56:13.634Z,94938.89
2022-07-29T18:58:40.039Z,94942.77
2022-07-29T19:01:06.429Z,94947.81
2022-07-29T19:03:32.818Z,94950.41
2022-07-29T19:05:59.227Z,94947.19
2022-07-29T19:08:27.591Z,94945.30
2022-07-29T19:10:52.120Z,94947.89
2022-07-29T19:13:18.501Z,94948.09
2022-07-29T19:15:44.900Z,94961.34
2022-07-29T19:18:11.284Z,94956.52
2022-07-29T19:20:37.672Z,94961.22
2022-07-29T19:23:04.056Z,94958.16
2022-07-29T19:25:30.516Z,94960.75
2022-07-29T19:27:56.963Z,94964.16
2022-07-29T19:30:23.348Z,94964.95
2022-07-29T19:32:49.717Z,94966.12
2022-07-29T19:35:16.100Z,94973.06
2022-07-29T19:37:43.460Z,94974.23
2022-07-29T19:40:08.877Z,94970.36
2022-07-29T19:42:35.279Z,94974.55
2022-07-29T19:45:01.986Z,94979.25
2022-07-29T19:47:28.395Z,94977.96
2022-07-29T19:49:54.757Z,94975.72
2022-07-29T19:52:21.145Z,94977.48
2022-07-29T19:54:47.519Z,94975.72
2022-07-29T19:57:14.147Z,94977.37
2022-07-29T19:59:40.285Z,94978.04
2022-07-29T20:02:06.717Z,94976.08
2022-07-29T20:04:33.156Z,94976.86
2022-07-29T20:06:59.764Z,94974.16
2022-07-29T20:09:25.814Z,94972.86
2022-07-29T20:11:52.225Z,94977.22
2022-07-29T20:14:18.604Z,94965.57
2022-07-29T20:16:45.015Z,94971.09
2022-07-29T20:19:11.401Z,94966.39
2022-07-29T20:21:37.792Z,94968.03
2022-07-29T20:24:04.204Z,94966.27
2022-07-29T20:26:30.598Z,94969.33
2022-07-29T20:28:56.990Z,94970.63
2022-07-29T20:31:23.462Z,94969.65
2022-07-29T20:33:51.233Z,94971.92
2022-07-29T20:36:16.224Z,94976.47
2022-07-29T20:38:42.629Z,94974.35
2022-07-29T20:41:08.993Z,94977.41
2022-07-29T20:43:35.933Z,94984.11
2022-07-29T20:46:01.821Z,94992.34
2022-07-29T20:48:28.150Z,94990.58
2022-07-29T20:50:54.534Z,94987.77
2022-07-29T20:53:20.950Z,94987.17
2022-07-29T20:55:47.338Z,94995.88
2022-07-29T20:58:13.729Z,95001.87
2022-07-29T21:00:40.111Z,95002.22
2022-07-29T21:03:06.548Z,94997.84
2022-07-29T21:05:32.879Z,95000.58
2022-07-29T21:07:59.259Z,94999.64
2022-07-29T21:10:25.654Z,94998.66
2022-07-29T21:12:52.025Z,94991.38
2022-07-29T21:15:18.422Z,94994.78
2022-07-29T21:17:44.808Z,94991.38
2022-07-29T21:20:11.200Z,94996.23
2022-07-29T21:22:37.588Z,94993.29
2022-07-29T21:25:03.976Z,94992.66
2022-07-29T21:27:30.444Z,94992.00
2022-07-29T21:29:56.832Z,94993.95
2022-07-29T21:32:30.189Z,94994.46
2022-07-29T21:34:49.646Z,94993.95
2022-07-29T21:37:16.037Z,94999.02
2022-07-29T21:39:42.551Z,95001.13
2022-07-29T21:42:09.044Z,95001.59
2022-07-29T21:44:35.456Z,95003.36
2022-07-29T21:47:02.287Z,95002.22
2022-07-29T21:49:28.455Z,95005.95
2022-07-29T21:51:54.754Z,95010.78
2022-07-29T21:54:21.135Z,95004.31
2022-07-29T21:56:51.158Z,95000.23
2022-07-29T21:59:14.894Z,94996.23
2022-07-29T22:01:40.360Z,94992.47
2022-07-29T22:04:06.740Z,94994.94
2022-07-29T22:06:33.117Z,94997.99
2022-07-29T22:08:59.512Z,94991.88
2022-07-29T22:11:25.887Z,94994.78
2022-07-29T22:13:52.271Z,94996.42
2022-07-29T22:16:18.698Z,94992.19
2022-07-29T22:18:45.141Z,94993.48
2022-07-29T22:21:11.572Z,94998.54
2022-07-29T22:23:37.968Z,94997.56
2022-07-29T22:26:04.371Z,94994.98
2022-07-29T22:28:30.897Z,94996.27
2022-07-29T22:30:57.383Z,94999.68
2022-07-29T22:33:23.707Z,95000.50
2022-07-29T22:35:50.093Z,95007.45
2022-07-29T22:38:16.480Z,95007.33
2022-07-29T22:40:42.864Z,95001.80
2022-07-29T22:43:09.255Z,94997.09
2022-07-29T22:45:35.633Z,95004.38
2022-07-29T22:48:02.017Z,95005.56
2022-07-29T22:50:28.396Z,94995.80
2022-07-29T22:52:55.827Z,95003.91
2022-07-29T22:55:22.216Z,95009.91
2022-07-29T22:57:48.606Z,95012.03
2022-07-29T23:00:15.138Z,95005.68
2022-07-29T23:02:41.783Z,95003.44
2022-07-29T23:05:07.940Z,95004.73
2022-07-29T23:07:34.419Z,95007.33
2022-07-29T23:10:00.844Z,95007.33
2022-07-29T23:12:27.208Z,95008.14
2022-07-29T23:14:53.593Z,95003.09
2022-07-29T23:17:21.247Z,95004.73
2022-07-29T23:19:46.393Z,95003.09
2022-07-29T23:22:12.778Z,95006.03
2022-07-29T23:24:39.166Z,94968.63
2022-07-29T23:27:05.554Z,94998.39
2022-07-29T23:29:36.345Z,95006.16
2022-07-29T23:31:58.464Z,95006.50
2022-07-29T23:34:24.879Z,95005.33
2022-07-29T23:36:51.266Z,95011.01
2022-07-29T23:39:17.644Z,95007.59
2022-07-29T23:41:44.041Z,95007.13
2022-07-29T23:44:10.447Z,95010.66
2022-07-29T23:46:36.877Z,95009.84
2022-07-29T23:49:03.287Z,95006.78
2022-07-29T23:51:29.631Z,94982.20
2022-07-29T23:53:56.023Z,95016.66
2022-07-29T23:56:22.399Z,95012.89
2022-07-29T23:58:48.805Z,95009.84
